Felipe Pacheco

Olheiro - Grêmio
25 Nov 2027
Quinta-feira
Processo

Personalidade

Adaptabilidade (20) Ambição (2) Controvérsia (10) Lealdade (12) Pressão (15) Profissionalismo (19) Espírito Esportivo (14) Temperamento (11)

Perfil

Estilo de Treinamento Democrático
Licença Nacional A
Determinação 13
Gestão de Pessoas 8
Motivação 11
Disciplina 9
Satisfação no Trabalho
100%
Fadiga
0%
Função Olheiro
Salário 109.3K p/s
Contrato 14.03.2030

Desempenho

Comportamento Bom
Eficácia do Treinamento
65%
Desenvolvimento do Jogador
35%
Prevenção de Lesões
40%
Implementação Tática
70%

Eventos Recentes

Participou de uma reunião de recrutamento agora
Recomendou um alvo de transferência agora
Avaliou um jogador 7d atrás
Participou de uma reunião de recrutamento 7d atrás
Recomendou um alvo de transferência 7d atrás
Participou de uma reunião de recrutamento 7d atrás
Avaliou um jogador 7d atrás
Avaliou um jogador 7d atrás

Monitorando agora

184
Jogador Clube Status Habilidade Confiança Observado Última observação Último voto
Bahia Criciuma Ativo 114 / 123 40% 2 23.11.2027 -
Ronan Kpakio Cardiff City Ativo 122 / 125 40% 1 23.11.2027 -
Ayden Heaven Luton Town Ativo 145 / 147 40% 3 21.11.2027 -
Josh Nichols Tranmere Rovers Ativo 120 / 126 40% 2 21.11.2027 -
Figueiredo Sampaio Correa Ativo 93 / 96 40% 2 21.11.2027 -
Gonçalo Oliveira Benfica Ativo 117 / 122 40% 2 17.11.2027 -
Caleb Yirenkyi Coventry City Ativo 141 / 143 40% 1 17.11.2027 -
Joel Ezra Enyimba Ativo 94 / 100 40% 2 15.11.2027 -
Hervin Goyes Deportivo Pasto Ativo 107 / 111 40% 1 15.11.2027 -
Martim Cunha Porto Ativo 107 / 113 40% 1 15.11.2027 -
Ignacio Fernández Boston River Ativo 92 / 100 40% 4 13.11.2027 -
João Teixeira Porto Ativo 114 / 126 40% 2 13.11.2027 -
Julián Bazán Philadelphia Union Ativo 113 / 117 40% 1 13.11.2027 -
Eduardo Felicíssimo Sporting CP Ativo 119 / 130 40% 4 09.11.2027 -
Bernardo Lima Porto Ativo 106 / 118 40% 2 09.11.2027 -
Giovanni Leoni Bradford City Ativo 139 / 146 40% 2 09.11.2027 -
Tiago Freitas Benfica Ativo 117 / 127 40% 2 06.11.2027 -
Daniel Costa Sporting CP Ativo 100 / 109 40% 1 06.11.2027 -
Marvelous Freedom Ikorodu City Ativo 91 / 92 40% 4 05.11.2027 -
Ricky Atletico Venezuela Ativo 97 / 103 40% 2 05.11.2027 -
Tyson Pearce St. Louis CITY SC Ativo 93 / 96 40% 1 01.11.2027 -
Luis Otávio Colorado Rapids Ativo 110 / 116 40% 1 30.10.2027 -
Mauro Carrizo Atlético Tucumán Ativo 102 / 107 40% 1 26.10.2027 -
Daniel Banjaqui Benfica Ativo 120 / 133 40% 2 25.10.2027 -
Myles Lewis-Skelly Birmingham Ativo 153 / 163 40% 1 25.10.2027 -
Jens Hjertø-Dahl Hull City Ativo 127 / 131 40% 1 20.10.2027 -
Brooke Norton-Cuffy Inter Miami CF Ativo 138 / 140 40% 2 07.09.2027 -
Juan Manuel Sanabria Real Salt Lake Ativo 128 / 125 40% 1 07.09.2027 -
Japhet Sery Larsen Philadelphia Union Ativo 127 / 123 40% 1 07.09.2027 -
Matheus Bidu Corinthians Ativo 129 / 126 40% 3 04.09.2027 -
Mateo Mendoza Godoy Cruz Ativo 128 / 127 40% 2 04.09.2027 -
Alhassan Yusuf New England Revolution Ativo 128 / 126 40% 2 31.08.2027 -
Bruno Leyes Godoy Cruz Ativo 127 / 130 40% 2 31.08.2027 -
Steven Alzate Atlanta United FC Ativo 128 / 130 40% 1 31.08.2027 -
Renato Tapia Al Wasl Ativo 139 / 142 40% 1 24.08.2027 -
Álvaro Carrillo APOEL Ativo 128 / 127 40% 1 24.08.2027 -
Guilherme Arana Fluminense Ativo 136 / 136 40% 1 21.08.2027 -
Keven Schlotterbeck FC Augsburg Ativo 142 / 140 40% 1 21.08.2027 -
Curtis Jones Inter Ativo 162 / 164 40% 8 15.08.2027 -
Fikayo Tomori AC Milan Ativo 155 / 158 40% 1 15.08.2027 -
Manu Koné AS Roma Ativo 168 / 166 40% 4 12.08.2027 -
Alessio Romagnoli Lazio Ativo 151 / 148 40% 1 12.08.2027 -
Adrià Altimira Deportivo La Coruña Ativo 138 / 131 40% 1 12.08.2027 -
Oumar Solet Udinese Ativo 152 / 152 40% 1 11.08.2027 -
Josh Doig Sassuolo Ativo 141 / 137 40% 1 11.08.2027 -
Adam Wharton Crystal Palace Ativo 157 / 159 40% 1 09.08.2027 -
Christos Mouzakitis Hull City Ativo 137 / 148 40% 1 09.08.2027 -
Dara O'Shea Ipswich Town Ativo 141 / 141 40% 2 07.08.2027 -
Tyler Adams Bournemouth Ativo 158 / 157 40% 3 07.08.2027 -
Sven Botman Newcastle United Ativo 163 / 166 40% 2 07.08.2027 -
Ethan Galbraith Swansea City Ativo 138 / 131 40% 3 06.08.2027 -
Mats Wieffer Brighton Ativo 152 / 153 40% 1 06.08.2027 -
Saša Lukić Ipswich Town Ativo 146 / 140 40% 2 04.08.2027 -
Callum Brittain Middlesbrough Ativo 135 / 132 40% 4 04.08.2027 -
Toby Collyer West Bromwich Albion Ativo 137 / 144 40% 1 04.08.2027 -
Boubacar Kamara Aston Villa Ativo 167 / 162 40% 4 02.08.2027 -
Imrân Louza Watford Ativo 135 / 130 40% 1 02.08.2027 -
Óscar Mingueza Crystal Palace Ativo 154 / 150 40% 4 19.07.2027 -
Ryan Sessegnon Fulham Ativo 149 / 152 40% 4 19.07.2027 -
Jhosefer ABC Ativo 109 / 109 95% 1 01.06.2027 Aprovar
Florentino Luís Ipswich Town Ativo 142 / 139 40% 2 30.05.2027 -
Morgan Whittaker Middlesbrough Ativo 133 / 131 40% 6 28.05.2027 -
Kevin Fulham Ativo 151 / 145 40% 3 28.05.2027 -
Scott Twine Bristol City Ativo 127 / 128 40% 1 28.05.2027 -
Marco Asensio Fenerbahce Ativo 158 / 149 40% 3 26.05.2027 Observar
Francisco Conceição Juventus Ativo 160 / 158 40% 2 26.05.2027 -
Georginio Rutter Brighton Ativo 149 / 154 40% 2 26.05.2027 -
Jack Rudoni Coventry City Ativo 136 / 128 40% 3 24.05.2027 -
Giacomo Raspadori Atalanta Ativo 149 / 148 40% 6 24.05.2027 -
Jacob Ramsey Newcastle United Ativo 153 / 148 40% 2 24.05.2027 -
Amadou Onana Aston Villa Ativo 156 / 159 40% 2 21.05.2027 -
Hector Ramirez Newcastle United Ativo 153 / 156 40% 1 21.05.2027 -
Adrien Truffert Bournemouth Ativo 150 / 154 40% 2 19.05.2027 -
Andrey Oeste Ativo 103 / 103 30% 1 / 1m 19.05.2027 -
Wellerson Sampaio Correa Ativo 101 / 101 30% 1 / 1m 19.05.2027 -
Dango Ouattara Brentford Ativo 148 / 140 40% 4 18.05.2027 -
Xavi Simons Tottenham Ativo 159 / 159 40% 4 17.05.2027 -
Callum Hudson-Odoi Nottingham Forest Ativo 152 / 149 40% 1 16.05.2027 -
Ousmane Diomande Nottingham Forest Ativo 152 / 160 40% 2 15.05.2027 -
Yehor Yarmoliuk Brentford Ativo 148 / 154 40% 2 15.05.2027 -
Kenny Tete Fulham Ativo 143 / 139 40% 1 15.05.2027 -
Kenan Yıldız Juventus Ativo 163 / 163 40% 1 10.05.2027 -
Matías Soulé AS Roma Ativo 157 / 159 40% 1 10.05.2027 -
Quinten Timber Crystal Palace Ativo 151 / 147 40% 1 09.05.2027 -
Léo Scienza Southampton Ativo 139 / 136 40% 1 08.05.2027 -
Derry Murkin Derby County Ativo 127 / 126 40% 2 07.05.2027 -
Nordi Mukiele Sunderland Ativo 145 / 146 40% 1 07.05.2027 -
Tom Fellows Southampton Ativo 134 / 129 40% 11 06.05.2027 -
Finn Azaz Southampton Ativo 130 / 122 40% 4 04.05.2027 -
Harry Wilson Leeds United Ativo 144 / 138 40% 1 04.05.2027 -
Mikkel Damsgaard Brentford Ativo 147 / 144 40% 2 03.05.2027 -
Carlos Vicente Birmingham Ativo 145 / 140 40% 2 02.05.2027 -
Othmane Maamma Watford Ativo 126 / 134 40% 1 01.05.2027 -
Jan Paul van Hecke Tottenham Ativo 159 / 160 40% 1 30.04.2027 -
Anton Stach Leeds United Ativo 150 / 148 40% 2 29.04.2027 -
Kiernan Dewsbury-Hall Everton Ativo 153 / 148 40% 1 29.04.2027 -
Welington Southampton Ativo 133 / 129 40% 1 29.04.2027 -
Nico González Newcastle United Ativo 162 / 156 40% 2 28.04.2027 -
Mario Dorgeles Braga Ativo 136 / 133 40% 9 25.04.2027 -
Pau Víctor AVS Ativo 141 / 137 40% 5 25.04.2027 -
Ricardo Horta Braga Ativo 151 / 145 40% 5 25.04.2027 -
William Gomes Porto Ativo 142 / 151 40% 4 24.04.2027 -
Renato Sanches AVS Ativo 132 / 130 40% 2 22.04.2027 -
Víctor Gómez Braga Ativo 142 / 137 40% 8 20.04.2027 -
Rodrigo Zalazar Sporting CP Ativo 152 / 153 40% 2 20.04.2027 -
Samu Vitoria Guimaraes Ativo 130 / 124 40% 4 15.04.2027 -
Diego Lainez Tigres Ativo 132 / 131 40% 5 13.04.2027 -
Iván Fresneda Sporting CP Ativo 142 / 147 40% 6 12.04.2027 -
Luís Guilherme Sporting CP Ativo 130 / 134 40% 2 12.04.2027 -
Ozziel Herrera Tigres Ativo 131 / 132 40% 5 12.04.2027 -
Francisco Moura Lusitânia Lourosa Ativo 141 / 139 40% 9 11.04.2027 -
Shea Charles Southampton Ativo 135 / 141 40% 2 11.04.2027 -
Kyle Walker-Peters West Ham United Ativo 137 / 140 40% 1 10.04.2027 -
Lee Hyun-Ju Arouca Ativo 123 / 117 40% 7 09.04.2027 -
Alejandro Zendejas Club America Ativo 142 / 143 40% 2 09.04.2027 -
Gianluca Prestianni Benfica Ativo 136 / 143 40% 3 09.04.2027 -
Telmo Arcanjo Vitoria Guimaraes Ativo 125 / 120 40% 1 09.04.2027 -
Alfonso Trezza Arouca Ativo 124 / 125 40% 1 08.04.2027 -
Gabri Martínez Braga Ativo 130 / 137 40% 6 04.04.2027 -
Luis Quintero Torreense Ativo 125 / 124 40% 4 04.04.2027 -
Juninho Pumas UNAM Ativo 131 / 131 40% 3 03.04.2027 -
Jesús Ricardo Angulo Toluca Ativo 135 / 128 40% 8 02.04.2027 -
Fredrik Aursnes Benfica Ativo 151 / 150 40% 1 31.03.2027 -
Pepê Porto Ativo 147 / 138 40% 3 28.03.2027 -
Luís Esteves Atlas Ativo 130 / 131 40% 4 28.03.2027 -
Isaiah Jones Luton Town Ativo 126 / 126 40% 1 28.03.2027 -
Valery Académico de Viseu Ativo 126 / 121 40% 1 28.03.2027 -
Nuno Santos Sporting CP Ativo 139 / 133 40% 5 24.03.2027 -
Víctor Dávila Club America Ativo 129 / 129 40% 2 24.03.2027 -
Paulo Moreira Farense Ativo 125 / 124 40% 2 22.03.2027 -
Bosun Lawal Stoke City Ativo 129 / 125 40% 1 22.03.2027 -
Alan Varela Porto Ativo 145 / 146 40% 6 19.03.2027 -
Alberto Costa Porto Ativo 144 / 139 40% 14 18.03.2027 -
Gabriel Veron Porto Ativo 128 / 129 40% 1 18.03.2027 -
Soungoutou Magassa West Ham United Ativo 133 / 138 40% 1 14.03.2027 -
Lewis Ferguson Bologna Ativo 145 / 141 40% 1 14.03.2027 -
Erick Sánchez OGC Nice Ativo 142 / 145 40% 2 13.03.2027 -
Agustín Palavecino Cruz Azul Ativo 139 / 134 40% 1 09.03.2027 -
André Silva Tondela Ativo 129 / 122 40% 4 08.03.2027 -
Gonçalo Inácio Sporting CP Ativo 147 / 148 40% 6 07.03.2027 -
Gustaf Lagerbielke Braga Ativo 137 / 138 40% 2 07.03.2027 -
Aidan Morris Middlesbrough Ativo 132 / 126 40% 1 07.03.2027 -
Rodrigo Pinheiro Famalicao Ativo 127 / 132 40% 6 03.03.2027 -
Santi García Gil Vicente Ativo 132 / 135 40% 9 03.03.2027 -
João Palhinha Benfica Ativo 150 / 151 40% 2 01.03.2027 -
Derensili Sanches Fernandes Huddersfield Town Ativo 125 / 127 40% 2 26.02.2027 -
Callum Doyle Wrexham Ativo 130 / 131 40% 1 23.02.2027 -
Félix Lemaréchal Club Brugge Ativo 137 / 132 40% 2 21.02.2027 -
Gustavo Silva Vitoria Guimaraes Ativo 125 / 118 40% 1 21.02.2027 -
Heorhii Sudakov Benfica Ativo 147 / 142 40% 4 20.02.2027 -
Brian Rodríguez Club America Ativo 130 / 130 40% 1 11.02.2027 -
Lewis Morgan SuperSport United Ativo 127 / 121 40% 2 07.02.2027 -
Christian Krasnodar Ativo 137 / 128 40% 1 06.02.2027 -
Samuel Lino Flamengo Ativo 140 / 142 40% 4 04.02.2027 -
Dodi Lukébakio Benfica Ativo 146 / 141 40% 1 03.02.2027 -
Jordan Holsgrove Estoril Praia Ativo 127 / 136 40% 2 25.01.2027 -
Rafik Guitane Estoril Praia Ativo 129 / 136 40% 2 25.01.2027 -
João Simões Sporting CP Ativo 127 / 138 40% 1 20.01.2027 -
Figueiredo Alverca Ativo 125 / 133 40% 3 19.01.2027 -
Henry Mosquera Bragantino Ativo 133 / 125 40% 2 15.01.2027 -
Bright Arrey-Mbi Braga Ativo 131 / 130 40% 1 29.11.2026 -
Matheuzinho Corinthians Ativo 129 / 127 40% 2 24.11.2026 -
Sergi Altimira Sporting CP Ativo 140 / 138 40% 3 22.11.2026 -
Tomás Araújo Benfica Ativo 149 / 149 40% 1 19.11.2026 -
Lucas Piton Vasco da Gama Ativo 129 / 125 40% 3 16.11.2026 -
Mathias De Amorim Famalicao Ativo 128 / 131 40% 1 16.11.2026 -
Zeno Debast Sporting CP Ativo 145 / 141 40% 3 15.11.2026 -
Lukáš Červ Viktoria Plzen Ativo 132 / 136 40% 1 14.11.2026 -
Victor Froholdt Porto Ativo 147 / 164 40% 1 07.11.2026 -
Adalberto Carrasquilla Pumas UNAM Ativo 128 / 124 40% 2 01.11.2026 -
Vitinho Botafogo Ativo 130 / 133 40% 1 28.10.2026 -
Leandro Lozano Boca Juniors Ativo 127 / 127 40% 1 28.10.2026 -
Caio Alexandre Bahia Ativo 134 / 135 40% 3 15.10.2026 -
Dinis Pinto Moreirense Ativo 128 / 124 40% 3 15.10.2026 -
Facundo Mura Inter Miami CF Ativo 127 / 126 40% 2 05.10.2026 -
Aníbal Moreno River Plate Ativo 134 / 130 40% 1 05.10.2026 -
Nicolás Romero Minnesota United FC Ativo 125 / 132 40% 1 27.09.2026 -
Kevin Álvarez Club America Ativo 135 / 134 40% 1 23.09.2026 -
Emerson Royal Flamengo Ativo 136 / 128 40% 1 19.09.2026 -
Chico Kim Mirassol Ativo 124 / 124 30% 1 / 1m 19.08.2026 -
Erick Vitória Ativo 132 / 132 52% 1 / 1m 19.08.2026 -
Jader Santa Clara Ativo 114 / 117 42% 1 / 1m 12.08.2026 -
Brais Méndez Columbus Crew Ativo 148 / 143 40% 1 05.08.2026 -
Pablo Rosario Porto Ativo 138 / 143 40% 1 04.08.2026 -